Time;durP1;ratioP1;P1;durP2;ratioP2;P2;SDS_P1;SDS_P2;PMS_P1;PMS_P2;Temp;Humidity;BMP_temperature;BMP_pressure;BME280_temperature;BME280_humidity;BME280_pressure;Samples;Min_cycle;Max_cycle;Signal;HPM_P1;HPM_P2
2023/05/28 00:02:23;;;;;;;16.75;7.63;;;;;;;14.68;100.00;94557.50;5040466;28;20345;-81
2023/05/28 00:05:07;;;;;;;14.55;7.60;;;;;;;14.78;100.00;94548.66;5023978;28;20029;-81
2023/05/28 00:07:33;;;;;;;12.65;7.43;;;;;;;15.10;100.00;94555.78;5057576;28;20040;-81
2023/05/28 00:09:58;;;;;;;14.30;6.95;;;;;;;15.29;100.00;94557.53;5040458;28;20025;-81
2023/05/28 00:12:43;;;;;;;14.10;7.65;;;;;;;15.08;100.00;94546.56;5040579;28;20040;-81
2023/05/28 00:15:08;;;;;;;16.30;7.97;;;;;;;14.80;100.00;94541.25;5057852;28;20116;-81
2023/05/28 00:20:19;;;;;;;13.73;6.65;;;;;;;15.08;100.00;94544.72;5058003;28;20087;-81
2023/05/28 00:22:45;;;;;;;14.27;7.57;;;;;;;15.25;100.00;94546.78;5057667;28;20681;-81
2023/05/28 00:25:11;;;;;;;17.15;7.45;;;;;;;15.15;100.00;94544.34;5040050;28;20036;-81
2023/05/28 00:27:55;;;;;;;14.18;7.45;;;;;;;15.13;100.00;94542.00;5057150;28;20024;-81
2023/05/28 00:30:23;;;;;;;16.10;7.80;;;;;;;14.70;100.00;94536.88;5057644;28;20116;-81
2023/05/28 00:32:48;;;;;;;14.18;8.23;;;;;;;15.16;100.00;94539.84;5040178;28;20091;-81
2023/05/28 00:35:14;;;;;;;15.63;8.00;;;;;;;15.21;100.00;94542.41;5039672;28;20029;-81
2023/05/28 00:37:39;;;;;;;14.10;7.30;;;;;;;15.08;100.00;94541.28;5039653;28;20036;-81
2023/05/28 00:40:06;;;;;;;13.40;7.65;;;;;;;14.65;100.00;94539.63;5039392;28;20400;-81
2023/05/28 00:45:15;;;;;;;17.27;8.15;;;;;;;14.13;100.00;94535.09;5041341;28;20120;-81
2023/05/28 00:47:41;;;;;;;19.40;8.02;;;;;;;14.04;100.00;94539.44;5057033;28;20111;-81
2023/05/28 00:50:07;;;;;;;14.77;7.35;;;;;;;14.19;100.00;94535.81;5039576;28;20431;-81
2023/05/28 00:52:52;;;;;;;16.65;8.32;;;;;;;13.83;100.00;94534.44;5039595;28;20028;-81
2023/05/28 00:55:18;;;;;;;12.90;7.75;;;;;;;14.11;100.00;94531.97;5023476;28;20028;-81
2023/05/28 00:57:43;;;;;;;17.10;8.23;;;;;;;14.07;100.00;94529.13;5039052;28;20350;-81
2023/05/28 01:00:10;;;;;;;16.80;9.32;;;;;;;13.65;100.00;94528.09;5022902;28;20044;-81
2023/05/28 01:02:35;;;;;;;15.90;7.75;;;;;;;13.74;100.00;94525.59;5057352;28;20115;-81
2023/05/28 01:05:04;;;;;;;21.77;8.63;;;;;;;13.89;100.00;94522.78;5056949;28;20021;-81
2023/05/28 01:10:14;;;;;;;14.20;7.57;;;;;;;14.06;100.00;94524.13;5063113;28;20039;-81
2023/05/28 01:12:42;;;;;;;16.05;7.82;;;;;;;14.14;100.00;94526.94;5044073;28;20437;-81
2023/05/28 01:15:08;;;;;;;16.00;8.48;;;;;;;13.97;100.00;94526.63;5046263;28;20028;-81
2023/05/28 01:17:34;;;;;;;15.20;8.57;;;;;;;13.87;100.00;94521.50;5048071;28;20118;-81
2023/05/28 01:20:10;;;;;;;13.20;7.55;;;;;;;13.77;100.00;94511.88;5058085;28;20028;-81
2023/05/28 01:22:38;;;;;;;16.05;8.18;;;;;;;14.12;100.00;94515.88;5061659;28;20044;-81
2023/05/28 01:25:23;;;;;;;18.88;8.50;;;;;;;14.13;100.00;94509.56;5043903;28;20020;-81
2023/05/28 01:30:37;;;;;;;16.95;8.77;;;;;;;13.61;100.00;94519.97;5062907;28;20032;-81
2023/05/28 01:33:03;;;;;;;16.80;7.93;;;;;;;13.80;100.00;94509.47;5059952;28;20032;-81
2023/05/28 01:35:28;;;;;;;15.70;8.15;;;;;;;13.76;100.00;94512.94;5059566;28;20021;-81
2023/05/28 01:37:57;;;;;;;18.48;8.43;;;;;;;13.49;100.00;94506.44;5059960;28;20349;-81
2023/05/28 01:40:24;;;;;;;17.02;8.55;;;;;;;13.37;100.00;94504.16;5043911;28;20028;-81
2023/05/28 01:42:50;;;;;;;15.65;7.85;;;;;;;13.46;100.00;94502.53;5049380;28;20446;-81
2023/05/28 01:45:16;;;;;;;14.07;8.07;;;;;;;13.37;100.00;94504.97;5038452;28;20028;-81
2023/05/28 01:47:42;;;;;;;18.05;8.13;;;;;;;13.53;100.00;94512.72;5038027;28;20047;-81
2023/05/28 01:50:08;;;;;;;13.27;7.50;;;;;;;13.63;100.00;94509.16;5022107;28;20024;-81
2023/05/28 01:52:34;;;;;;;17.08;8.35;;;;;;;13.56;100.00;94512.94;5038338;28;20025;-81
2023/05/28 01:54:59;;;;;;;16.38;8.18;;;;;;;13.43;100.00;94509.13;5056391;28;20029;-81
2023/05/28 01:57:25;;;;;;;17.25;7.90;;;;;;;13.44;100.00;94512.56;5037553;28;20025;-81
2023/05/28 01:59:50;;;;;;;13.13;7.05;;;;;;;13.49;100.00;94514.34;5038060;28;20123;-81
2023/05/28 02:02:16;;;;;;;13.85;8.30;;;;;;;13.57;100.00;94508.44;5021985;28;20029;-81
2023/05/28 02:04:41;;;;;;;12.90;7.90;;;;;;;13.23;100.00;94511.97;5038195;28;20419;-81
2023/05/28 02:07:26;;;;;;;15.45;8.27;;;;;;;13.12;100.00;94508.66;5055427;28;20438;-81
2023/05/28 02:09:51;;;;;;;17.48;7.75;;;;;;;13.37;100.00;94502.34;5038026;28;20107;-81
2023/05/28 02:12:16;;;;;;;12.20;7.47;;;;;;;13.52;100.00;94506.66;5038252;28;20179;-81
2023/05/28 02:15:02;;;;;;;15.18;7.47;;;;;;;13.26;100.00;94495.63;5037945;28;20035;-81
2023/05/28 02:17:27;;;;;;;17.92;8.50;;;;;;;13.14;100.00;94502.03;5055375;28;20071;-81
2023/05/28 02:20:11;;;;;;;16.05;7.93;;;;;;;13.21;100.00;94500.94;5021558;28;20464;-81
2023/05/28 02:22:37;;;;;;;14.02;8.18;;;;;;;13.36;100.00;94502.59;5037911;28;20035;-81
2023/05/28 02:25:03;;;;;;;11.68;7.20;;;;;;;13.48;100.00;94496.97;5021460;28;20029;-81
2023/05/28 02:27:29;;;;;;;16.83;7.63;;;;;;;13.42;100.00;94493.59;5020954;28;20066;-80
2023/05/28 02:29:54;;;;;;;15.65;8.00;;;;;;;13.14;100.00;94494.16;5037670;28;20024;-81
2023/05/28 02:32:19;;;;;;;14.60;8.13;;;;;;;12.95;100.00;94493.31;5055537;28;20086;-81
2023/05/28 02:34:45;;;;;;;17.63;8.85;;;;;;;12.97;100.00;94493.81;5037521;28;20033;-81
2023/05/28 02:37:10;;;;;;;15.85;8.38;;;;;;;12.79;100.00;94495.31;5037186;28;20029;-81
2023/05/28 02:39:35;;;;;;;16.10;8.60;;;;;;;12.77;100.00;94487.72;5037585;28;20430;-81
2023/05/28 02:42:01;;;;;;;16.27;8.88;;;;;;;12.82;100.00;94495.53;5055283;28;20111;-81
2023/05/28 02:44:45;;;;;;;20.73;8.35;;;;;;;12.94;100.00;94489.13;5021095;28;20134;-81
2023/05/28 02:47:11;;;;;;;14.68;8.35;;;;;;;12.60;100.00;94482.88;5038398;28;20029;-81
2023/05/28 02:49:36;;;;;;;13.80;8.60;;;;;;;12.59;100.00;94489.94;5056567;28;20067;-81
2023/05/28 02:52:01;;;;;;;16.60;8.65;;;;;;;12.87;100.00;94484.97;5030566;28;20052;-81
2023/05/28 02:54:27;;;;;;;14.23;7.90;;;;;;;12.99;100.00;94487.22;5052971;28;20067;-81
2023/05/28 02:56:52;;;;;;;16.17;7.78;;;;;;;12.97;100.00;94491.19;5028697;28;20529;-81
2023/05/28 02:59:18;;;;;;;17.98;8.52;;;;;;;12.70;100.00;94488.03;5048285;28;20350;-81
2023/05/28 03:04:27;;;;;;;14.77;8.43;;;;;;;12.61;100.00;94497.56;5061596;28;20089;-81
2023/05/28 03:06:52;;;;;;;12.07;7.75;;;;;;;12.79;100.00;94500.56;5076069;28;20028;-81
2023/05/28 03:09:37;;;;;;;14.95;8.10;;;;;;;12.96;100.00;94495.66;5079677;28;20077;-81
2023/05/28 03:12:02;;;;;;;13.73;7.35;;;;;;;13.12;100.00;94501.53;5062938;28;20438;-81
2023/05/28 03:14:29;;;;;;;17.20;8.50;;;;;;;13.09;100.00;94503.94;5080833;28;20036;-81
2023/05/28 03:16:54;;;;;;;16.95;8.10;;;;;;;12.94;100.00;94510.16;5062496;28;20052;-81
2023/05/28 03:19:20;;;;;;;11.85;7.60;;;;;;;13.12;100.00;94500.75;5061287;28;20056;-81
2023/05/28 03:21:46;;;;;;;16.52;8.48;;;;;;;13.03;100.00;94503.22;5080407;28;20028;-81
2023/05/28 03:24:11;;;;;;;22.83;8.13;;;;;;;12.72;100.00;94508.78;5062606;28;20422;-81
2023/05/28 03:26:37;;;;;;;18.20;8.23;;;;;;;12.86;100.00;94506.28;5062688;28;20121;-81
2023/05/28 03:29:02;;;;;;;14.48;8.25;;;;;;;13.06;100.00;94500.03;5062515;28;20315;-81
2023/05/28 03:31:47;;;;;;;16.65;8.00;;;;;;;13.31;100.00;94502.69;5062444;28;20032;-80
2023/05/28 03:34:12;;;;;;;15.07;7.18;;;;;;;13.03;100.00;94500.59;5062370;28;20456;-81
2023/05/28 03:36:40;;;;;;;14.95;7.72;;;;;;;12.85;100.00;94502.88;5062200;28;20028;-81
2023/05/28 03:39:08;;;;;;;13.10;7.38;;;;;;;12.80;100.00;94504.75;5080037;28;20039;-81
2023/05/28 03:41:34;;;;;;;12.85;7.43;;;;;;;12.60;100.00;94498.63;5062203;28;20024;-81
2023/05/28 03:46:44;;;;;;;13.35;7.63;;;;;;;12.77;100.00;94503.47;5064431;28;20028;-81
2023/05/28 03:49:09;;;;;;;18.98;8.13;;;;;;;13.00;100.00;94501.16;5061967;28;20020;-81
2023/05/28 03:54:19;;;;;;;14.60;7.45;;;;;;;13.30;100.00;94488.72;5064729;28;20035;-81
2023/05/28 03:56:44;;;;;;;15.35;7.85;;;;;;;13.43;100.00;94480.19;5060938;28;20029;-81
2023/05/28 03:59:28;;;;;;;18.13;7.90;;;;;;;13.22;100.00;94492.75;5062185;28;20024;-81
2023/05/28 04:01:54;;;;;;;14.00;7.80;;;;;;;12.98;100.00;94490.13;5079968;28;20036;-81
2023/05/28 04:04:20;;;;;;;15.65;7.53;;;;;;;12.90;100.00;94485.47;5079656;28;20338;-81
2023/05/28 04:07:04;;;;;;;14.15;7.55;;;;;;;12.77;100.00;94487.72;5079055;28;20024;-81
2023/05/28 04:09:29;;;;;;;12.02;6.93;;;;;;;13.17;100.00;94478.88;5061862;28;20342;-81
2023/05/28 04:11:55;;;;;;;13.35;7.00;;;;;;;13.45;100.00;94487.00;5061613;28;20028;-81
2023/05/28 04:14:23;;;;;;;13.73;7.82;;;;;;;13.32;100.00;94491.84;5061636;28;20032;-81
2023/05/28 04:16:48;;;;;;;23.55;8.63;;;;;;;13.33;100.00;94493.41;5061178;28;20028;-81
2023/05/28 04:19:14;;;;;;;14.32;7.90;;;;;;;13.38;100.00;94489.94;5061318;28;20422;-81
2023/05/28 04:21:39;;;;;;;21.25;8.38;;;;;;;13.33;100.00;94495.28;5044673;28;20434;-81
2023/05/28 04:24:05;;;;;;;15.27;8.40;;;;;;;13.35;100.00;94490.50;5061405;28;20039;-81
2023/05/28 04:26:31;;;;;;;16.48;8.55;;;;;;;13.78;100.00;94492.41;5061416;28;20036;-81
2023/05/28 04:28:57;;;;;;;15.98;7.75;;;;;;;14.12;100.00;94494.03;5061441;28;20128;-81
2023/05/28 04:31:26;;;;;;;15.27;7.20;;;;;;;14.29;100.00;94493.50;5061129;28;20060;-81
2023/05/28 04:33:53;;;;;;;18.05;8.10;;;;;;;14.51;100.00;94489.47;5061911;28;20123;-81
2023/05/28 04:39:04;;;;;;;15.48;7.57;;;;;;;13.88;100.00;94496.75;5063779;28;20071;-81
2023/05/28 04:41:30;;;;;;;16.90;8.07;;;;;;;13.91;100.00;94494.28;5061178;28;20327;-81
2023/05/28 04:43:56;;;;;;;15.43;8.82;;;;;;;13.95;100.00;94497.16;5061182;28;20456;-81
2023/05/28 04:46:25;;;;;;;12.13;7.28;;;;;;;13.98;100.00;94492.09;5060732;28;20052;-81
2023/05/28 04:48:51;;;;;;;24.92;8.13;;;;;;;14.39;100.00;94503.09;5061465;28;20028;-81
2023/05/28 04:51:18;;;;;;;13.20;7.90;;;;;;;14.54;100.00;94500.22;5060841;28;20024;-81
2023/05/28 04:53:43;;;;;;;19.40;8.13;;;;;;;14.09;100.00;94497.22;5061078;28;20055;-82
2023/05/28 04:56:10;;;;;;;13.27;8.18;;;;;;;13.86;100.00;94497.00;5060175;28;20108;-82
2023/05/28 04:58:36;;;;;;;18.30;9.23;;;;;;;13.71;100.00;94493.50;5060667;28;20036;-82
2023/05/28 05:01:20;;;;;;;14.10;8.50;;;;;;;13.52;100.00;94497.97;5044348;28;20032;-82
2023/05/28 05:03:45;;;;;;;16.17;8.15;;;;;;;13.82;100.00;94494.16;5060914;28;20024;-81
2023/05/28 05:06:11;;;;;;;15.93;7.50;;;;;;;14.09;100.00;94491.97;5060388;28;20047;-81
2023/05/28 05:08:36;;;;;;;15.02;7.65;;;;;;;14.21;100.00;94494.94;5060186;28;20124;-81
2023/05/28 05:11:21;;;;;;;12.88;7.88;;;;;;;14.45;100.00;94491.41;5060544;28;20083;-81
2023/05/28 05:13:46;;;;;;;17.60;7.43;;;;;;;14.51;100.00;94487.63;5078389;28;20030;-81
2023/05/28 05:16:12;;;;;;;12.52;7.57;;;;;;;14.16;100.00;94483.69;5060365;28;20028;-81
2023/05/28 05:18:56;;;;;;;17.35;7.97;;;;;;;13.81;100.00;94479.44;5043606;28;20036;-81
2023/05/28 05:24:08;;;;;;;17.17;8.30;;;;;;;13.92;100.00;94484.56;5043037;28;20091;-82
2023/05/28 05:26:34;;;;;;;20.55;7.97;;;;;;;14.12;100.00;94488.75;5057954;28;20025;-81
2023/05/28 05:28:59;;;;;;;11.20;7.20;;;;;;;14.42;100.00;94491.97;5040218;28;20021;-81
2023/05/28 05:31:43;;;;;;;10.27;6.97;;;;;;;14.68;100.00;94502.13;5057275;28;20025;-81
2023/05/28 05:34:27;;;;;;;15.88;8.20;;;;;;;14.46;100.00;94503.50;5057978;28;20054;-81
2023/05/28 05:36:52;;;;;;;16.95;8.82;;;;;;;13.73;100.00;94493.25;5057830;28;20032;-81
2023/05/28 05:39:18;;;;;;;18.65;9.00;;;;;;;13.80;100.00;94490.25;5039979;28;20032;-81
2023/05/28 05:41:44;;;;;;;18.30;8.90;;;;;;;13.98;100.00;94494.75;5040104;28;20104;-81
2023/05/28 05:44:09;;;;;;;15.05;7.45;;;;;;;14.55;100.00;94493.88;5068725;28;20024;-81
2023/05/28 05:46:53;;;;;;;17.30;9.40;;;;;;;14.70;100.00;94494.69;5077168;28;20057;-81
2023/05/28 05:49:37;;;;;;;14.57;7.68;;;;;;;15.18;100.00;94487.53;5077357;28;20035;-82
2023/05/28 05:54:47;;;;;;;10.63;7.05;;;;;;;15.50;100.00;94494.59;5048075;28;20341;-82
2023/05/28 05:57:12;;;;;;;12.50;7.57;;;;;;;15.29;100.00;94488.16;5077301;28;20020;-82
2023/05/28 06:02:41;;;;;;;15.23;8.50;;;;;;;15.22;100.00;94485.91;5077376;28;20027;-82
2023/05/28 06:05:06;;;;;;;15.10;7.75;;;;;;;15.65;100.00;94485.56;5059747;28;20035;-82
2023/05/28 06:07:32;;;;;;;12.55;7.75;;;;;;;16.18;100.00;94472.81;5077404;28;20028;-82
2023/05/28 06:09:58;;;;;;;14.98;7.78;;;;;;;16.64;100.00;94488.66;5059457;28;20027;-82
2023/05/28 06:15:08;;;;;;;11.50;7.60;;;;;;;17.10;100.00;94484.88;5062080;28;20115;-81
2023/05/28 06:17:33;;;;;;;16.15;7.57;;;;;;;17.33;100.00;94491.97;5058938;28;20103;-80
2023/05/28 06:20:00;;;;;;;14.85;7.20;;;;;;;17.42;100.00;94492.75;5059173;28;20032;-80
2023/05/28 06:22:26;;;;;;;13.50;7.18;;;;;;;17.23;100.00;94491.16;5042935;28;20031;-80
2023/05/28 06:27:58;;;;;;;13.48;7.63;;;;;;;17.29;100.00;94497.09;5076966;28;20422;-81
2023/05/28 06:30:24;;;;;;;13.80;8.05;;;;;;;17.34;100.00;94490.88;5058915;28;20096;-80
2023/05/28 06:33:09;;;;;;;12.23;7.57;;;;;;;17.76;100.00;94488.66;5042651;28;20020;-81
2023/05/28 06:35:53;;;;;;;11.18;7.40;;;;;;;17.93;100.00;94497.69;5058949;28;20516;-81
2023/05/28 06:38:37;;;;;;;16.30;8.23;;;;;;;17.94;100.00;94499.25;5059139;28;20025;-81
2023/05/28 06:41:02;;;;;;;14.82;8.73;;;;;;;18.00;100.00;94500.66;5059089;28;20133;-81
2023/05/28 06:43:46;;;;;;;15.57;8.18;;;;;;;18.00;100.00;94499.91;5075887;28;20099;-80
2023/05/28 06:46:12;;;;;;;12.85;8.13;;;;;;;18.03;100.00;94494.78;5076378;28;20051;-81
2023/05/28 06:48:37;;;;;;;18.15;8.57;;;;;;;17.50;100.00;94488.56;5042400;28;20411;-81
2023/05/28 06:51:03;;;;;;;12.25;7.75;;;;;;;17.84;100.00;94495.03;5058792;28;20107;-81
2023/05/28 06:53:28;;;;;;;13.23;7.85;;;;;;;17.94;100.00;94500.06;5058781;28;20178;-81
2023/05/28 06:55:53;;;;;;;16.60;8.05;;;;;;;18.14;100.00;94487.28;5042185;28;20047;-81
2023/05/28 06:58:19;;;;;;;14.95;7.75;;;;;;;17.98;100.00;94494.13;5042268;28;20021;-81
2023/05/28 07:00:44;;;;;;;16.67;7.85;;;;;;;18.11;100.00;94493.22;5042190;28;20033;-80
2023/05/28 07:03:10;;;;;;;11.05;7.03;;;;;;;18.46;100.00;94497.75;5042204;28;20025;-81
2023/05/28 07:08:20;;;;;;;12.27;6.90;;;;;;;18.65;100.00;94497.41;5076533;28;20040;-80
2023/05/28 07:11:04;;;;;;;13.10;7.70;;;;;;;18.65;100.00;94494.75;5076250;28;20032;-80
2023/05/28 07:13:47;;;;;;;12.20;6.85;;;;;;;18.69;100.00;94493.00;5076527;28;20021;-81
2023/05/28 07:19:16;;;;;;;25.45;6.82;;;;;;;19.04;100.00;94503.56;5076413;28;20046;-83
2023/05/28 07:21:41;;;;;;;11.80;6.13;;;;;;;19.05;100.00;94502.47;5042063;28;20016;-83
2023/05/28 07:24:06;;;;;;;35.13;11.07;;;;;;;18.95;100.00;94500.13;5059022;28;20024;-83
2023/05/28 07:26:32;;;;;;;18.33;7.38;;;;;;;18.97;100.00;94513.88;5076057;28;20394;-82
2023/05/28 07:28:58;;;;;;;13.77;7.53;;;;;;;19.27;100.00;94510.50;5058455;28;20124;-82
2023/05/28 07:31:23;;;;;;;16.92;7.68;;;;;;;19.34;100.00;94513.47;5058443;28;20396;-83
2023/05/28 07:33:50;;;;;;;16.45;7.72;;;;;;;19.12;100.00;94511.81;5058286;28;20063;-84
2023/05/28 07:36:15;;;;;;;17.98;8.23;;;;;;;19.29;100.00;94509.09;5058374;28;20028;-83
2023/05/28 07:39:01;;;;;;;10.65;7.18;;;;;;;19.17;100.00;94506.31;5058204;28;20032;-83
2023/05/28 07:41:45;;;;;;;11.73;7.40;;;;;;;19.73;100.00;94500.13;5058757;28;20403;-83
2023/05/28 07:44:11;;;;;;;21.73;7.95;;;;;;;19.63;100.00;94496.72;5058288;28;20029;-83
2023/05/28 07:46:36;;;;;;;12.15;7.13;;;;;;;19.90;100.00;94500.00;5041903;28;20074;-83
2023/05/28 07:49:02;;;;;;;12.48;7.38;;;;;;;19.88;100.00;94491.56;5058241;28;20021;-83
2023/05/28 07:51:27;;;;;;;13.85;7.47;;;;;;;19.74;100.00;94493.69;5058247;28;20024;-83
2023/05/28 07:54:14;;;;;;;12.85;7.28;;;;;;;19.60;100.00;94494.72;5076823;28;20025;-83
2023/05/28 07:56:40;;;;;;;12.55;7.70;;;;;;;20.02;100.00;94490.56;5062135;28;20086;-83
2023/05/28 07:59:06;;;;;;;18.02;6.93;;;;;;;19.84;99.38;94488.00;5062053;28;20035;-83
2023/05/28 08:01:32;;;;;;;18.23;7.28;;;;;;;19.84;100.00;94487.22;5061946;28;20115;-83
2023/05/28 08:03:57;;;;;;;11.48;7.75;;;;;;;20.19;100.00;94489.66;5079610;28;20016;-83
2023/05/28 08:06:41;;;;;;;12.73;6.95;;;;;;;20.33;100.00;94484.06;5061832;28;20024;-83
2023/05/28 08:09:25;;;;;;;12.77;7.70;;;;;;;19.97;99.16;94488.88;5061932;28;20024;-83
2023/05/28 08:11:51;;;;;;;20.83;7.55;;;;;;;19.99;100.00;94485.91;5079541;28;20082;-83
2023/05/28 08:14:35;;;;;;;14.70;7.43;;;;;;;20.51;100.00;94483.91;5061891;28;20024;-83
2023/05/28 08:17:01;;;;;;;12.27;7.15;;;;;;;20.56;100.00;94475.72;5044525;28;20495;-83
2023/05/28 08:19:26;;;;;;;11.23;7.18;;;;;;;20.67;100.00;94474.22;5079332;28;20033;-83
2023/05/28 08:21:52;;;;;;;12.80;7.22;;;;;;;21.01;97.55;94472.31;5060269;28;20055;-83
2023/05/28 08:24:18;;;;;;;11.50;6.38;;;;;;;21.51;100.00;94476.88;5061385;28;20028;-83
2023/05/28 08:26:44;;;;;;;12.90;7.32;;;;;;;21.65;90.50;94476.50;5079050;28;20089;-83
2023/05/28 08:29:10;;;;;;;12.55;7.18;;;;;;;21.54;96.48;94474.31;5061389;28;20020;-83
2023/05/28 08:31:54;;;;;;;11.07;6.40;;;;;;;21.60;94.59;94480.19;5044857;28;20031;-82
2023/05/28 08:34:36;;;;;;;11.68;7.32;;;;;;;21.28;90.90;94472.78;5079100;28;20074;-83
2023/05/28 08:37:20;;;;;;;10.27;6.75;;;;;;;20.98;100.00;94475.63;5044583;28;20437;-84
2023/05/28 08:39:45;;;;;;;12.98;7.20;;;;;;;21.11;100.00;94473.00;5060894;28;20036;-84
2023/05/28 08:42:30;;;;;;;19.15;7.60;;;;;;;20.40;100.00;94464.91;5061148;28;20453;-84
2023/05/28 08:45:14;;;;;;;13.35;6.97;;;;;;;19.71;100.00;94463.22;5061243;28;20160;-85
2023/05/28 08:47:40;;;;;;;15.75;7.22;;;;;;;19.51;100.00;94467.44;5078665;28;20035;-83
2023/05/28 08:50:06;;;;;;;13.50;7.28;;;;;;;19.56;100.00;94461.13;5044360;28;20028;-84
2023/05/28 08:52:33;;;;;;;25.00;7.95;;;;;;;19.80;100.00;94457.88;5060797;28;20066;-84
2023/05/28 08:55:05;;;;;;;14.23;7.13;;;;;;;20.14;100.00;94456.06;5060816;28;20507;-84
2023/05/28 08:57:31;;;;;;;12.35;6.88;;;;;;;20.26;100.00;94450.00;5060814;28;20028;-84
2023/05/28 08:59:57;;;;;;;12.43;7.38;;;;;;;19.82;100.00;94454.88;5043945;28;20123;-84
2023/05/28 09:05:48;;;;;;;15.60;8.15;;;;;;;19.24;100.00;94453.50;5062864;28;20103;-83
2023/05/28 09:08:32;;;;;;;13.90;7.18;;;;;;;19.73;100.00;94455.72;5058371;28;20116;-83
2023/05/28 09:10:57;;;;;;;12.25;6.78;;;;;;;19.59;100.00;94455.97;5040802;28;20025;-83
2023/05/28 09:13:23;;;;;;;15.65;6.63;;;;;;;19.10;100.00;94459.03;5041029;28;20433;-84
2023/05/28 09:15:52;;;;;;;12.25;7.60;;;;;;;18.92;100.00;94458.28;5055038;28;20036;-84
2023/05/28 09:18:21;;;;;;;14.05;7.72;;;;;;;19.46;100.00;94452.44;5060230;28;20036;-83
2023/05/28 09:29:23;;;;;;;11.18;7.10;;;;;;;21.05;100.00;94449.22;5063034;28;20027;-84
2023/05/28 09:31:56;;;;;;;20.90;7.50;;;;;;;20.99;100.00;94449.75;5060328;28;20322;-83
2023/05/28 09:34:41;;;;;;;12.63;7.57;;;;;;;20.77;88.81;94446.41;5043872;28;20056;-83
2023/05/28 09:37:07;;;;;;;14.63;7.70;;;;;;;21.08;94.98;94441.66;5059994;28;20027;-85
2023/05/28 09:39:33;;;;;;;15.45;7.10;;;;;;;21.34;100.00;94441.34;5042909;28;20433;-84
2023/05/28 09:42:19;;;;;;;12.73;7.15;;;;;;;20.86;100.00;94446.31;5058821;28;20024;-82
2023/05/28 09:44:44;;;;;;;14.48;7.47;;;;;;;19.85;96.13;94447.03;5076532;28;20430;-85
2023/05/28 09:47:16;;;;;;;13.05;7.60;;;;;;;20.21;98.38;94444.91;5041857;28;20034;-85
2023/05/28 09:49:44;;;;;;;13.32;7.53;;;;;;;20.47;100.00;94444.66;5042490;28;20024;-84
2023/05/28 09:52:21;;;;;;;16.52;7.85;;;;;;;20.87;100.00;94437.22;5059914;28;20031;-84
2023/05/28 09:54:52;;;;;;;10.93;6.65;;;;;;;20.66;100.00;94445.25;5059793;28;20027;-84
2023/05/28 09:57:22;;;;;;;17.17;7.72;;;;;;;;;;5059598;28;20024;-85
2023/05/28 09:59:50;;;;;;;14.45;7.88;;;;;;;21.18;98.94;94436.69;5077451;28;20028;-85
2023/05/28 10:02:28;;;;;;;12.82;6.50;;;;;;;21.16;95.89;94438.13;5059936;28;20039;-85
2023/05/28 10:04:56;;;;;;;15.43;6.95;;;;;;;21.31;100.00;94439.38;5076494;28;20025;-86
2023/05/28 10:10:29;;;;;;;15.23;7.40;;;;;;;21.59;85.15;94442.09;5062121;28;20028;-84
2023/05/28 10:12:55;;;;;;;13.35;7.15;;;;;;;21.10;83.56;94442.13;5076290;28;20115;-86
2023/05/28 10:15:20;;;;;;;12.82;6.80;;;;;;;21.67;92.41;94434.34;5059362;28;20433;-86
2023/05/28 10:18:06;;;;;;;10.55;7.18;;;;;;;22.00;88.74;94431.47;5042757;28;20120;-86
2023/05/28 10:20:31;;;;;;;11.90;6.47;;;;;;;21.99;90.38;94434.47;5059122;28;20028;-84
2023/05/28 10:22:57;;;;;;;10.90;6.80;;;;;;;21.56;89.36;94439.31;5059303;28;20094;-84
2023/05/28 10:25:22;;;;;;;13.80;7.43;;;;;;;22.00;100.00;94433.38;5058854;28;20025;-83
2023/05/28 10:27:50;;;;;;;14.25;6.95;;;;;;;22.08;87.22;94435.09;5024631;28;20025;-84
2023/05/28 10:30:35;;;;;;;14.95;6.72;;;;;;;21.56;88.65;94428.66;5038961;28;20338;-84
2023/05/28 10:33:05;;;;;;;11.93;6.63;;;;;;;22.22;82.44;94426.72;5059063;28;20380;-84
2023/05/28 10:35:37;;;;;;;10.77;6.22;;;;;;;22.08;97.64;94432.44;5042426;28;20028;-86
2023/05/28 10:38:06;;;;;;;9.77;6.03;;;;;;;21.64;75.01;94426.97;5059076;28;20035;-86
2023/05/28 10:40:33;;;;;;;9.05;5.68;;;;;;;22.18;73.55;94429.28;5042770;28;20032;-85
2023/05/28 10:45:47;;;;;;;13.23;6.25;;;;;;;21.73;79.09;94427.66;5061095;28;20542;-84
2023/05/28 10:48:16;;;;;;;10.57;6.03;;;;;;;21.60;80.23;94430.31;5042066;28;20127;-85
2023/05/28 10:53:41;;;;;;;15.40;6.35;;;;;;;22.03;76.54;94425.47;5076825;28;20139;-83
2023/05/28 10:56:07;;;;;;;11.73;6.57;;;;;;;22.23;76.90;94417.59;5058518;28;20107;-83
2023/05/28 11:01:23;;;;;;;9.52;6.38;;;;;;;22.24;74.50;94419.16;5059655;28;20078;-85
2023/05/28 11:03:53;;;;;;;11.18;6.40;;;;;;;22.44;75.63;94412.06;5042714;28;20035;-85
2023/05/28 11:06:19;;;;;;;10.30;6.35;;;;;;;22.89;86.89;94412.03;5041771;28;20020;-84
2023/05/28 11:08:46;;;;;;;9.68;6.35;;;;;;;22.43;88.52;94415.84;5042279;28;20030;-85
2023/05/28 11:11:13;;;;;;;11.00;6.65;;;;;;;22.33;79.91;94408.31;5076761;28;20075;-84
2023/05/28 11:13:41;;;;;;;16.52;6.78;;;;;;;22.58;77.53;94411.66;5042189;28;20031;-83
2023/05/28 11:16:07;;;;;;;11.15;6.88;;;;;;;22.42;79.52;94406.28;5055871;28;20434;-83
2023/05/28 11:18:33;;;;;;;12.77;6.55;;;;;;;22.12;75.94;94400.53;5042065;28;20028;-83
2023/05/28 11:21:08;;;;;;;12.82;6.00;;;;;;;22.51;73.18;94402.69;5058537;28;20021;-83
2023/05/28 11:23:39;;;;;;;9.90;5.90;;;;;;;22.58;73.51;94402.88;5042181;28;20048;-84
2023/05/28 11:26:05;;;;;;;10.65;6.45;;;;;;;22.23;74.62;94398.13;5058227;28;20029;-84
2023/05/28 11:28:31;;;;;;;13.38;6.45;;;;;;;22.24;75.74;94400.47;5058597;28;20056;-84
2023/05/28 11:30:58;;;;;;;16.13;6.53;;;;;;;22.71;77.24;94393.69;5045895;28;20430;-84
2023/05/28 11:33:26;;;;;;;14.63;7.45;;;;;;;22.40;76.49;94391.72;5046039;28;20117;-83
2023/05/28 11:36:13;;;;;;;9.77;5.97;;;;;;;23.15;85.27;94392.78;5061858;28;20029;-84
2023/05/28 11:38:38;;;;;;;11.20;6.97;;;;;;;22.93;80.12;94402.19;5062492;28;20027;-83
2023/05/28 11:41:26;;;;;;;14.40;7.43;;;;;;;22.12;79.52;94395.19;5062186;28;20024;-84
2023/05/28 11:44:20;;;;;;;20.92;7.00;;;;;;;22.29;84.76;94383.44;5062221;28;20336;-84
2023/05/28 11:47:05;;;;;;;16.95;7.32;;;;;;;22.32;85.13;94388.09;5061793;28;20020;-84
2023/05/28 11:49:31;;;;;;;14.07;6.70;;;;;;;23.20;75.81;94381.06;5045627;28;20029;-84
2023/05/28 11:52:17;;;;;;;11.20;6.93;;;;;;;22.87;68.28;94388.31;5061950;28;20452;-84
2023/05/28 11:54:52;;;;;;;14.82;6.15;;;;;;;23.12;69.48;94390.03;5062140;28;20460;-83
2023/05/28 11:57:43;;;;;;;12.20;6.90;;;;;;;23.81;78.44;94384.25;5044821;28;20025;-83
2023/05/28 12:00:15;;;;;;;13.43;6.63;;;;;;;24.02;86.60;94383.13;5079562;28;20036;-84
2023/05/28 12:05:42;;;;;;;14.30;6.78;;;;;;;21.52;79.41;94383.25;5064333;28;20032;-85
2023/05/28 12:08:10;;;;;;;11.23;6.63;;;;;;;22.76;82.63;94376.63;5061996;28;20024;-84
2023/05/28 12:11:03;;;;;;;14.48;7.28;;;;;;;23.68;75.35;94380.19;5061760;28;20459;-84
2023/05/28 12:13:35;;;;;;;14.00;6.90;;;;;;;23.96;68.18;94379.97;5061699;28;20032;-84
2023/05/28 12:18:51;;;;;;;13.80;7.10;;;;;;;23.20;70.64;94370.34;5064209;28;20056;-84
2023/05/28 12:21:20;;;;;;;11.80;7.32;;;;;;;22.64;69.77;94374.03;5061566;28;20024;-84
2023/05/28 12:23:46;;;;;;;13.95;7.57;;;;;;;22.65;73.72;94380.94;5045421;28;20387;-84
2023/05/28 12:26:31;;;;;;;15.10;7.55;;;;;;;22.40;72.25;94370.38;5061446;28;20029;-85
2023/05/28 12:28:56;;;;;;;17.63;7.97;;;;;;;23.23;72.85;94375.00;5061939;28;20029;-84
2023/05/28 12:31:27;;;;;;;18.95;8.05;;;;;;;24.09;91.01;94369.91;5061357;28;20024;-84
2023/05/28 12:33:52;;;;;;;12.63;6.90;;;;;;;24.04;73.66;94370.22;5060793;28;20118;-85
2023/05/28 12:39:05;;;;;;;14.38;7.25;;;;;;;24.29;69.57;94365.31;5063770;28;20034;-84
2023/05/28 12:41:30;;;;;;;12.25;6.97;;;;;;;24.26;62.36;94355.31;5060086;28;20024;-85
2023/05/28 12:43:56;;;;;;;13.63;7.82;;;;;;;23.93;72.53;94363.84;5045002;28;20024;-84
2023/05/28 12:46:21;;;;;;;10.95;7.40;;;;;;;23.95;65.85;94359.69;5061229;28;20031;-84